createdAt,value
2023-02-28T00:01:16.635Z,5.67
2023-02-28T00:03:44.181Z,5.30
2023-02-28T00:06:12.166Z,5.70
2023-02-28T00:08:40.059Z,5.17
2023-02-28T00:11:10.392Z,5.20
2023-02-28T00:13:39.860Z,5.03
2023-02-28T00:16:11.187Z,5.83
2023-02-28T00:18:38.943Z,5.37
2023-02-28T00:21:07.847Z,6.30
2023-02-28T00:23:35.813Z,5.20
2023-02-28T00:26:03.697Z,5.23
2023-02-28T00:28:31.380Z,5.03
2023-02-28T00:31:00.968Z,5.87
2023-02-28T00:33:30.230Z,5.67
2023-02-28T00:36:06.950Z,5.53
2023-02-28T00:38:34.750Z,5.17
2023-02-28T00:41:05.534Z,5.73
2023-02-28T00:43:34.456Z,6.43
2023-02-28T00:46:02.404Z,5.57
2023-02-28T00:48:31.465Z,5.43
2023-02-28T00:50:59.477Z,5.57
2023-02-28T00:53:27.294Z,5.97
2023-02-28T00:55:54.987Z,6.13
2023-02-28T00:58:22.566Z,5.40
2023-02-28T01:00:50.620Z,5.33
2023-02-28T01:03:18.788Z,5.63
2023-02-28T01:05:48.786Z,5.27
2023-02-28T01:08:17.021Z,5.17
2023-02-28T01:10:44.672Z,4.77
2023-02-28T01:13:12.566Z,5.27
2023-02-28T01:15:41.750Z,4.77
2023-02-28T01:18:09.294Z,4.93
2023-02-28T01:20:38.637Z,5.07
2023-02-28T01:23:07.994Z,5.83
2023-02-28T01:25:36.660Z,5.70
2023-02-28T01:28:04.530Z,5.17
2023-02-28T01:30:32.586Z,6.50
2023-02-28T01:33:00.501Z,5.40
2023-02-28T01:35:28.037Z,6.03
2023-02-28T01:37:55.654Z,5.67
2023-02-28T01:40:24.510Z,5.90
2023-02-28T01:42:52.141Z,5.90
2023-02-28T01:45:24.206Z,5.87
2023-02-28T01:47:54.002Z,6.67
2023-02-28T01:50:23.515Z,6.90
2023-02-28T01:52:52.234Z,6.37
2023-02-28T01:55:21.246Z,6.00
2023-02-28T01:57:51.221Z,5.37
2023-02-28T02:00:21.426Z,6.17
2023-02-28T02:02:51.492Z,5.70
2023-02-28T02:05:22.186Z,5.87
2023-02-28T02:07:51.684Z,6.40
2023-02-28T02:10:22.807Z,6.70
2023-02-28T02:13:16.239Z,6.40
2023-02-28T02:15:46.784Z,6.73
2023-02-28T02:18:21.128Z,5.43
2023-02-28T02:21:23.219Z,6.43
2023-02-28T02:24:16.388Z,6.03
2023-02-28T02:27:01.033Z,8.13
2023-02-28T02:30:01.286Z,14.20
2023-02-28T02:33:11.439Z,6.83
2023-02-28T02:35:47.409Z,6.53
2023-02-28T02:38:22.024Z,7.27
2023-02-28T02:40:56.713Z,6.10
2023-02-28T02:43:28.044Z,6.13
2023-02-28T02:45:58.657Z,6.17
2023-02-28T02:48:28.077Z,6.77
2023-02-28T02:50:59.338Z,6.27
2023-02-28T02:53:31.125Z,7.07
2023-02-28T02:56:00.240Z,7.57
2023-02-28T02:58:30.844Z,6.67
2023-02-28T03:01:00.719Z,7.03
2023-02-28T03:03:30.668Z,7.20
2023-02-28T03:06:01.450Z,6.67
2023-02-28T03:08:30.219Z,6.83
2023-02-28T03:10:59.579Z,6.83
2023-02-28T03:13:45.495Z,7.77
2023-02-28T03:16:25.742Z,7.40
2023-02-28T03:18:59.559Z,6.90
2023-02-28T03:21:32.074Z,6.93
2023-02-28T03:24:06.284Z,7.23
2023-02-28T03:26:36.441Z,6.93
2023-02-28T03:29:06.335Z,7.47
2023-02-28T03:31:37.547Z,7.33
2023-02-28T03:34:08.097Z,8.60
2023-02-28T03:36:45.015Z,7.47
2023-02-28T03:39:16.591Z,7.77
2023-02-28T03:41:45.628Z,8.03
2023-02-28T03:44:18.163Z,8.00
2023-02-28T03:46:51.030Z,8.47
2023-02-28T03:49:21.945Z,8.43
2023-02-28T03:51:52.108Z,7.73
2023-02-28T03:54:22.166Z,7.80
2023-02-28T03:56:54.898Z,8.37
2023-02-28T03:59:27.255Z,8.07
2023-02-28T04:01:56.253Z,8.23
2023-02-28T04:04:24.236Z,8.33
2023-02-28T04:06:53.703Z,8.37
2023-02-28T04:09:21.227Z,7.60
2023-02-28T04:11:53.358Z,8.53
2023-02-28T04:14:21.494Z,8.47
2023-02-28T04:16:49.301Z,7.73
2023-02-28T04:19:17.228Z,8.57
2023-02-28T04:21:46.914Z,8.37
2023-02-28T04:24:17.686Z,8.83
2023-02-28T04:26:46.809Z,8.50
2023-02-28T04:29:15.571Z,8.77
2023-02-28T04:31:43.186Z,8.47
2023-02-28T04:34:11.004Z,9.10
2023-02-28T04:36:38.548Z,9.40
2023-02-28T04:39:06.214Z,8.27
2023-02-28T04:41:35.308Z,9.97
2023-02-28T04:44:03.052Z,8.87
2023-02-28T04:46:31.463Z,9.37
2023-02-28T04:48:59.105Z,9.43
2023-02-28T04:51:26.989Z,9.50
2023-02-28T04:53:54.976Z,8.33
2023-02-28T04:56:22.758Z,9.30
2023-02-28T04:58:51.743Z,8.10
2023-02-28T05:01:26.087Z,9.07
2023-02-28T05:03:55.083Z,9.83
2023-02-28T05:06:24.720Z,9.13
2023-02-28T05:08:52.633Z,9.83
2023-02-28T05:11:22.540Z,10.00
2023-02-28T05:13:52.768Z,9.17
2023-02-28T05:16:20.739Z,9.30
2023-02-28T05:18:48.506Z,8.90
2023-02-28T05:21:28.878Z,10.33
2023-02-28T05:23:57.528Z,9.23
2023-02-28T05:26:25.301Z,9.03
2023-02-28T05:28:54.503Z,8.60
2023-02-28T05:31:22.234Z,8.00
2023-02-28T05:33:49.863Z,8.70
2023-02-28T05:36:17.358Z,7.93
2023-02-28T05:38:44.932Z,7.93
2023-02-28T05:41:12.880Z,7.63
2023-02-28T05:43:40.454Z,7.93
2023-02-28T05:46:11.502Z,7.13
2023-02-28T05:48:40.616Z,7.50
2023-02-28T05:51:10.104Z,7.97
2023-02-28T05:53:38.324Z,7.30
2023-02-28T05:56:06.627Z,7.87
2023-02-28T05:58:34.508Z,7.00
2023-02-28T06:01:03.237Z,7.63
2023-02-28T06:03:32.261Z,7.10
2023-02-28T06:05:59.841Z,8.17
2023-02-28T06:08:27.647Z,6.97
2023-02-28T06:10:55.239Z,7.80
2023-02-28T06:13:22.763Z,7.53
2023-02-28T06:15:50.436Z,6.87
2023-02-28T06:18:18.031Z,6.63
2023-02-28T06:20:49.503Z,6.97
2023-02-28T06:23:16.996Z,6.70
2023-02-28T06:25:47.006Z,7.67
2023-02-28T06:28:14.551Z,6.70
2023-02-28T06:30:42.106Z,7.07
2023-02-28T06:33:09.633Z,7.50
2023-02-28T06:35:37.218Z,7.73
2023-02-28T06:38:06.102Z,7.17
2023-02-28T06:40:36.019Z,6.83
2023-02-28T06:43:03.816Z,7.63
2023-02-28T06:45:31.429Z,7.43
2023-02-28T06:47:59.424Z,8.33
2023-02-28T06:50:28.598Z,7.67
2023-02-28T06:52:56.613Z,7.77
2023-02-28T06:55:25.451Z,7.70
2023-02-28T06:57:53.001Z,6.70
2023-02-28T07:00:21.216Z,7.67
2023-02-28T07:02:49.035Z,8.13
2023-02-28T07:05:16.630Z,10.27
2023-02-28T07:07:46.267Z,8.37
2023-02-28T07:10:14.627Z,7.87
2023-02-28T07:12:44.396Z,7.57
2023-02-28T07:15:12.535Z,8.07
2023-02-28T07:17:40.236Z,7.63
2023-02-28T07:20:09.325Z,7.67
2023-02-28T07:22:36.902Z,8.93
2023-02-28T07:25:05.159Z,9.17
2023-02-28T07:27:32.789Z,8.03
2023-02-28T07:30:02.759Z,8.70
2023-02-28T07:32:30.487Z,8.20
2023-02-28T07:34:58.273Z,8.23
2023-02-28T07:37:25.942Z,7.70
2023-02-28T07:39:53.472Z,8.20
2023-02-28T07:42:21.861Z,8.03
2023-02-28T07:44:49.419Z,8.53
2023-02-28T07:47:18.284Z,7.07
2023-02-28T07:49:47.160Z,8.00
2023-02-28T07:52:14.673Z,8.43
2023-02-28T07:54:42.160Z,8.77
2023-02-28T07:57:10.528Z,7.97
2023-02-28T07:59:38.136Z,8.43
2023-02-28T08:02:05.672Z,8.10
2023-02-28T08:04:35.098Z,7.93
2023-02-28T08:07:03.199Z,8.10
2023-02-28T08:09:30.995Z,8.43
2023-02-28T08:11:58.492Z,8.60
2023-02-28T08:14:26.159Z,8.03
2023-02-28T08:16:53.748Z,8.33
2023-02-28T08:19:21.241Z,8.10
2023-02-28T08:21:50.271Z,7.53
2023-02-28T08:24:17.914Z,8.33
2023-02-28T08:26:45.497Z,7.60
2023-02-28T08:29:13.051Z,7.87
2023-02-28T08:31:40.695Z,8.23
2023-02-28T08:34:08.823Z,8.73
2023-02-28T08:36:36.745Z,7.43
2023-02-28T08:39:05.925Z,8.83
2023-02-28T08:41:33.745Z,8.30
2023-02-28T08:44:01.342Z,8.33
2023-02-28T08:46:29.169Z,8.57
2023-02-28T08:49:00.334Z,8.73
2023-02-28T08:51:28.598Z,9.00
2023-02-28T08:53:58.305Z,9.00
2023-02-28T08:56:27.986Z,7.57
2023-02-28T08:58:58.013Z,9.27
2023-02-28T09:01:29.228Z,7.67
2023-02-28T09:03:58.227Z,7.50
2023-02-28T09:06:28.478Z,7.77
2023-02-28T09:09:00.698Z,9.27
2023-02-28T09:11:30.030Z,8.87
2023-02-28T09:13:57.711Z,8.07
2023-02-28T09:16:25.461Z,8.27
2023-02-28T09:18:53.043Z,7.67
2023-02-28T09:21:21.273Z,8.67
2023-02-28T09:23:50.363Z,6.87
2023-02-28T09:26:20.282Z,8.87
2023-02-28T09:28:49.194Z,8.20
2023-02-28T09:31:21.791Z,7.97
2023-02-28T09:33:49.949Z,7.83
2023-02-28T09:36:17.590Z,7.57
2023-02-28T09:38:48.091Z,8.40
2023-02-28T09:41:18.169Z,8.07
2023-02-28T09:43:49.243Z,8.40
2023-02-28T09:46:27.992Z,7.87
2023-02-28T09:48:57.469Z,8.07
2023-02-28T09:51:35.515Z,7.23
2023-02-28T09:54:03.313Z,8.03
2023-02-28T09:56:35.666Z,7.90
2023-02-28T09:59:07.882Z,9.10
2023-02-28T10:01:41.327Z,8.90
2023-02-28T10:04:16.251Z,8.17
2023-02-28T10:06:47.344Z,8.63
2023-02-28T10:09:17.926Z,8.83
2023-02-28T10:14:22.217Z,8.63
2023-02-28T10:16:53.090Z,8.93
2023-02-28T10:19:22.852Z,8.33
2023-02-28T10:21:56.255Z,8.87
2023-02-28T10:24:29.777Z,8.33
2023-02-28T10:27:01.672Z,8.90
2023-02-28T10:29:33.925Z,8.33
2023-02-28T10:32:03.662Z,7.90
2023-02-28T10:34:31.307Z,9.40
2023-02-28T10:37:08.186Z,8.00
2023-02-28T10:39:40.830Z,8.27
2023-02-28T10:42:26.852Z,7.73
2023-02-28T10:45:12.204Z,8.63
2023-02-28T10:47:51.866Z,8.13
2023-02-28T10:50:37.577Z,8.60
2023-02-28T10:53:18.808Z,9.17
2023-02-28T10:55:46.348Z,8.53
2023-02-28T10:58:23.209Z,8.20
2023-02-28T11:00:53.441Z,7.93
2023-02-28T11:03:32.136Z,9.13
2023-02-28T11:06:00.582Z,9.07
2023-02-28T11:08:28.230Z,8.57
2023-02-28T11:10:57.645Z,7.83
2023-02-28T11:13:28.577Z,8.20
2023-02-28T11:15:59.988Z,9.33
2023-02-28T11:18:31.812Z,7.53
2023-02-28T11:21:01.694Z,8.37
2023-02-28T11:23:31.252Z,7.93
2023-02-28T11:26:00.567Z,9.00
2023-02-28T11:28:32.004Z,8.17
2023-02-28T11:31:07.351Z,8.03
2023-02-28T11:33:43.076Z,8.83
2023-02-28T11:36:13.856Z,9.03
2023-02-28T11:38:41.538Z,8.53
2023-02-28T11:41:28.788Z,7.83
2023-02-28T11:44:07.117Z,7.77
2023-02-28T11:46:41.334Z,8.67
2023-02-28T11:49:28.023Z,8.53
2023-02-28T11:51:59.010Z,8.60
2023-02-28T11:54:36.401Z,7.93
2023-02-28T11:57:13.249Z,9.17
2023-02-28T11:59:52.904Z,8.90
2023-02-28T12:02:29.175Z,8.40
2023-02-28T12:05:14.519Z,7.60
2023-02-28T12:07:51.585Z,8.87
2023-02-28T12:10:24.041Z,8.30
2023-02-28T12:13:05.012Z,8.50
2023-02-28T12:16:09.147Z,7.67
2023-02-28T12:19:03.193Z,7.57
2023-02-28T12:21:38.793Z,8.40
2023-02-28T12:24:18.738Z,8.20
2023-02-28T12:26:47.601Z,8.47
2023-02-28T12:29:20.471Z,8.50
2023-02-28T12:31:52.764Z,9.23
2023-02-28T12:34:25.102Z,7.57
2023-02-28T12:36:54.320Z,8.47
2023-02-28T12:39:25.999Z,7.90
2023-02-28T12:41:55.417Z,8.10
2023-02-28T12:44:28.138Z,8.00
2023-02-28T12:46:59.240Z,8.00
2023-02-28T12:49:32.583Z,8.47
2023-02-28T12:52:01.740Z,8.60
2023-02-28T12:54:32.607Z,8.53
2023-02-28T12:57:07.838Z,8.53
2023-02-28T12:59:40.297Z,8.13
2023-02-28T13:02:46.105Z,8.07
2023-02-28T13:05:52.444Z,8.53
2023-02-28T13:08:32.399Z,8.03
2023-02-28T13:11:00.197Z,7.87
2023-02-28T13:13:31.483Z,8.67
2023-02-28T13:16:01.767Z,8.57
2023-02-28T13:18:33.221Z,9.13
2023-02-28T13:21:02.384Z,8.67
2023-02-28T13:24:02.987Z,8.07
2023-02-28T13:27:09.518Z,8.13
2023-02-28T13:29:41.357Z,8.20
2023-02-28T13:32:39.993Z,7.93
2023-02-28T13:35:46.110Z,8.07
2023-02-28T13:38:27.265Z,8.30
2023-02-28T13:40:54.867Z,7.87
2023-02-28T13:43:34.623Z,7.30
2023-02-28T13:46:14.773Z,8.00
2023-02-28T13:48:43.004Z,7.87
2023-02-28T13:51:33.374Z,8.83
2023-02-28T13:54:06.105Z,7.53
2023-02-28T13:56:42.693Z,8.00
2023-02-28T13:59:19.920Z,7.77
2023-02-28T14:01:55.656Z,8.50
2023-02-28T14:04:41.526Z,8.03
2023-02-28T14:07:09.918Z,9.07
2023-02-28T14:09:41.128Z,7.97
2023-02-28T14:12:46.314Z,9.10
2023-02-28T14:15:42.102Z,9.53
2023-02-28T14:18:18.576Z,7.57
2023-02-28T14:20:48.669Z,9.20
2023-02-28T14:23:26.254Z,7.87
2023-02-28T14:25:59.281Z,8.70
2023-02-28T14:28:38.464Z,7.97
2023-02-28T14:31:10.732Z,8.03
2023-02-28T14:34:02.589Z,8.10
2023-02-28T14:36:35.041Z,8.33
2023-02-28T14:39:05.577Z,8.07
2023-02-28T14:41:37.963Z,8.93
2023-02-28T14:44:16.435Z,8.80
2023-02-28T14:46:44.874Z,7.93
2023-02-28T14:49:19.202Z,8.50
2023-02-28T14:51:48.271Z,8.87
2023-02-28T14:54:18.223Z,8.43
2023-02-28T14:56:51.317Z,8.80
2023-02-28T14:59:26.971Z,8.20
2023-02-28T15:02:09.385Z,8.70
2023-02-28T15:04:37.045Z,8.30
2023-02-28T15:07:11.286Z,8.30
2023-02-28T15:09:38.890Z,8.30
2023-02-28T15:12:08.249Z,8.33
2023-02-28T15:14:39.164Z,7.93
2023-02-28T15:17:11.331Z,8.43
2023-02-28T15:19:43.314Z,8.17
2023-02-28T15:22:15.429Z,9.07
2023-02-28T15:24:44.543Z,7.87
2023-02-28T15:27:16.526Z,8.33
2023-02-28T15:29:46.842Z,8.57
2023-02-28T15:32:26.436Z,8.83
2023-02-28T15:34:55.115Z,8.63
2023-02-28T15:37:31.921Z,9.67
2023-02-28T15:40:08.135Z,9.53
2023-02-28T15:42:37.029Z,8.33
2023-02-28T15:45:05.183Z,10.10
2023-02-28T15:47:33.111Z,10.80
2023-02-28T15:50:02.808Z,9.97
2023-02-28T15:52:33.432Z,10.00
2023-02-28T15:55:00.970Z,10.27
2023-02-28T15:57:30.511Z,10.70
2023-02-28T16:00:01.827Z,9.80
2023-02-28T16:02:34.168Z,9.77
2023-02-28T16:05:21.714Z,9.63
2023-02-28T16:07:49.897Z,10.03
2023-02-28T16:10:17.754Z,9.73
2023-02-28T16:12:46.330Z,10.30
2023-02-28T16:15:21.922Z,10.07
2023-02-28T16:17:49.722Z,9.73
2023-02-28T16:20:19.072Z,9.87
2023-02-28T16:22:46.649Z,10.47
2023-02-28T16:25:15.238Z,11.20
2023-02-28T16:27:43.467Z,10.27
2023-02-28T16:30:17.821Z,12.73
2023-02-28T16:32:46.872Z,13.03
2023-02-28T16:35:15.046Z,14.87
2023-02-28T16:37:43.313Z,13.33
2023-02-28T16:40:16.566Z,11.50
2023-02-28T16:42:44.633Z,11.33
2023-02-28T16:45:19.252Z,10.80
2023-02-28T16:47:48.298Z,11.30
2023-02-28T16:50:18.801Z,12.00
2023-02-28T16:52:46.489Z,12.70
2023-02-28T16:55:14.128Z,12.43
2023-02-28T16:57:42.491Z,17.15
2023-02-28T17:00:15.046Z,18.30
2023-02-28T17:02:43.322Z,10.93
2023-02-28T17:05:13.434Z,11.97
2023-02-28T17:07:41.884Z,13.73
2023-02-28T17:10:16.101Z,14.93
2023-02-28T17:12:46.207Z,18.53
2023-02-28T17:15:15.896Z,13.93
2023-02-28T17:17:44.682Z,13.40
2023-02-28T17:20:15.970Z,14.00
2023-02-28T17:22:43.641Z,14.10
2023-02-28T17:25:12.361Z,12.93
2023-02-28T17:27:40.244Z,12.77
2023-02-28T17:30:16.505Z,13.03
2023-02-28T17:32:44.313Z,12.90
2023-02-28T17:35:12.224Z,12.70
2023-02-28T17:37:41.186Z,13.90
2023-02-28T17:40:15.333Z,13.13
2023-02-28T17:42:42.958Z,14.37
2023-02-28T17:45:11.157Z,13.03
2023-02-28T17:47:38.729Z,14.23
2023-02-28T17:50:07.319Z,12.67
2023-02-28T17:52:37.605Z,12.90
2023-02-28T17:55:07.545Z,15.40
2023-02-28T17:57:35.346Z,14.43
2023-02-28T18:00:06.851Z,12.60
2023-02-28T18:02:34.558Z,13.47
2023-02-28T18:05:04.094Z,14.83
2023-02-28T18:07:31.786Z,13.67
2023-02-28T18:09:59.361Z,13.83
2023-02-28T18:12:28.483Z,14.03
2023-02-28T18:14:56.037Z,14.57
2023-02-28T18:17:23.547Z,15.00
2023-02-28T18:19:51.564Z,13.87
2023-02-28T18:22:19.174Z,14.27
2023-02-28T18:24:46.782Z,20.70
2023-02-28T18:27:14.317Z,19.93
2023-02-28T18:29:43.155Z,13.83
2023-02-28T18:32:10.916Z,14.00
2023-02-28T18:34:38.491Z,13.27
2023-02-28T18:37:06.042Z,13.40
2023-02-28T18:39:33.752Z,13.63
2023-02-28T18:42:01.347Z,14.00
2023-02-28T18:44:28.880Z,14.73
2023-02-28T18:46:57.893Z,14.43
2023-02-28T18:49:25.655Z,14.57
2023-02-28T18:51:53.500Z,13.67
2023-02-28T18:54:21.252Z,15.40
2023-02-28T18:56:50.959Z,15.03
2023-02-28T18:59:18.485Z,14.40
2023-02-28T19:01:46.602Z,14.10
2023-02-28T19:04:16.207Z,14.37
2023-02-28T19:06:43.833Z,15.07
2023-02-28T19:09:11.822Z,14.10
2023-02-28T19:11:39.522Z,15.13
2023-02-28T19:14:08.250Z,14.73
2023-02-28T19:16:36.310Z,15.53
2023-02-28T19:19:03.897Z,15.07
2023-02-28T19:21:32.895Z,15.47
2023-02-28T19:24:00.434Z,15.40
2023-02-28T19:26:28.364Z,15.10
2023-02-28T19:28:56.447Z,15.93
2023-02-28T19:31:25.978Z,13.47
2023-02-28T19:33:53.882Z,15.00
2023-02-28T19:36:22.490Z,15.87
2023-02-28T19:38:52.700Z,14.73
2023-02-28T19:41:20.365Z,15.57
2023-02-28T19:43:48.327Z,14.70
2023-02-28T19:46:16.190Z,13.70
2023-02-28T19:48:44.899Z,17.77
2023-02-28T19:51:14.721Z,21.60
2023-02-28T19:53:43.604Z,16.07
2023-02-28T19:56:12.910Z,18.90
2023-02-28T19:58:40.479Z,38.90
2023-02-28T20:01:09.935Z,25.80
2023-02-28T20:03:37.577Z,24.47
2023-02-28T20:06:07.581Z,36.63
2023-02-28T20:08:35.183Z,21.90
2023-02-28T20:11:06.505Z,29.97
2023-02-28T20:13:35.826Z,33.60
2023-02-28T20:16:06.040Z,43.50
2023-02-28T20:18:34.096Z,28.43
2023-02-28T20:21:02.278Z,17.07
2023-02-28T20:23:30.244Z,17.20
2023-02-28T20:26:00.001Z,16.43
2023-02-28T20:28:27.524Z,15.83
2023-02-28T20:30:56.928Z,16.70
2023-02-28T20:33:25.018Z,16.70
2023-02-28T20:35:59.631Z,15.37
2023-02-28T20:38:28.285Z,16.33
2023-02-28T20:40:56.228Z,15.23
2023-02-28T20:43:24.467Z,15.57
2023-02-28T20:45:52.668Z,15.07
2023-02-28T20:48:22.347Z,15.50
2023-02-28T20:50:50.460Z,16.30
2023-02-28T20:53:18.561Z,15.93
2023-02-28T20:55:54.716Z,14.80
2023-02-28T20:58:22.313Z,16.97
2023-02-28T21:00:49.974Z,15.20
2023-02-28T21:03:17.494Z,15.17
2023-02-28T21:05:46.468Z,15.50
2023-02-28T21:08:14.012Z,15.93
2023-02-28T21:10:41.716Z,15.87
2023-02-28T21:13:09.270Z,16.13
2023-02-28T21:15:38.582Z,14.13
2023-02-28T21:18:06.200Z,15.20
2023-02-28T21:20:33.947Z,16.23
2023-02-28T21:23:02.937Z,16.23
2023-02-28T21:25:30.448Z,16.37
2023-02-28T21:27:58.139Z,15.40
2023-02-28T21:30:25.646Z,14.93
2023-02-28T21:32:53.202Z,15.87
2023-02-28T21:35:21.257Z,15.33
2023-02-28T21:37:48.789Z,15.47
2023-02-28T21:40:18.260Z,15.73
2023-02-28T21:42:45.818Z,16.30
2023-02-28T21:45:13.426Z,16.53
2023-02-28T21:47:41.502Z,15.97
2023-02-28T21:50:11.018Z,15.20
2023-02-28T21:52:39.057Z,16.23
2023-02-28T21:55:07.482Z,16.53
2023-02-28T21:57:36.621Z,15.93
2023-02-28T22:00:06.810Z,17.13
2023-02-28T22:02:36.762Z,14.87
2023-02-28T22:05:04.381Z,15.80
2023-02-28T22:07:31.923Z,16.03
2023-02-28T22:09:59.440Z,15.70
2023-02-28T22:12:26.990Z,16.10
2023-02-28T22:14:56.163Z,15.83
2023-02-28T22:17:23.836Z,14.73
2023-02-28T22:19:51.329Z,16.17
2023-02-28T22:22:19.495Z,14.97
2023-02-28T22:24:46.994Z,16.43
2023-02-28T22:27:14.622Z,16.53
2023-02-28T22:29:42.404Z,15.23
2023-02-28T22:32:11.818Z,16.90
2023-02-28T22:34:39.368Z,18.20
2023-02-28T22:37:07.648Z,15.47
2023-02-28T22:39:35.495Z,16.67
2023-02-28T22:42:03.029Z,16.53
2023-02-28T22:44:31.092Z,15.37
2023-02-28T22:46:58.616Z,15.87
2023-02-28T22:49:27.659Z,16.17
2023-02-28T22:51:55.327Z,16.20
2023-02-28T22:54:23.058Z,14.83
2023-02-28T22:56:50.669Z,15.80
2023-02-28T22:59:18.412Z,16.13
2023-02-28T23:01:46.093Z,15.47
2023-02-28T23:04:15.414Z,17.20
2023-02-28T23:06:44.505Z,15.73
2023-02-28T23:09:14.661Z,16.37
2023-02-28T23:11:46.590Z,15.50
2023-02-28T23:14:15.511Z,15.97
2023-02-28T23:16:45.431Z,15.97
2023-02-28T23:19:15.283Z,16.83
2023-02-28T23:21:45.089Z,15.97
2023-02-28T23:24:14.153Z,15.63
2023-02-28T23:26:43.932Z,16.47
2023-02-28T23:29:11.613Z,14.70
2023-02-28T23:31:39.198Z,16.20
2023-02-28T23:34:07.418Z,16.63
2023-02-28T23:36:34.968Z,15.37
2023-02-28T23:39:03.945Z,16.37
2023-02-28T23:41:31.730Z,15.50
2023-02-28T23:43:59.246Z,16.60
2023-02-28T23:46:27.039Z,15.57
2023-02-28T23:48:54.578Z,16.57
2023-02-28T23:51:22.867Z,16.67
2023-02-28T23:53:52.641Z,16.27
2023-02-28T23:56:23.346Z,14.97
2023-02-28T23:58:51.833Z,15.33
